Time;durP1;ratioP1;P1;durP2;ratioP2;P2;SDS_P1;SDS_P2;PMS_P1;PMS_P2;Temp;Humidity;BMP_temperature;BMP_pressure;BME280_temperature;BME280_humidity;BME280_pressure;Samples;Min_cycle;Max_cycle;Signal;HPM_P1;HPM_P2
2021/04/23 00:01:10;;;;;;;15.35;12.73;;;;;;;9.35;81.71;99348.64;1708678;83;21304;-69
2021/04/23 00:03:46;;;;;;;16.30;14.10;;;;;;;9.24;82.02;99340.23;1706898;83;21169;-68
2021/04/23 00:06:28;;;;;;;16.52;13.55;;;;;;;9.15;82.21;99350.80;1720282;83;21683;-67
2021/04/23 00:09:15;;;;;;;15.35;13.40;;;;;;;9.15;82.38;99346.73;1713274;83;21607;-68
2021/04/23 00:12:02;;;;;;;16.70;14.70;;;;;;;9.14;82.52;99355.95;1710994;83;21157;-68
2021/04/23 00:14:34;;;;;;;14.65;12.75;;;;;;;9.18;82.54;99357.05;1704511;83;21301;-69
2021/04/23 00:17:02;;;;;;;17.45;13.25;;;;;;;9.21;82.15;99358.43;1689028;83;21953;-67
2021/04/23 00:19:30;;;;;;;17.40;14.03;;;;;;;9.18;82.06;99367.91;1693834;83;21145;-67
2021/04/23 00:21:58;;;;;;;18.15;13.88;;;;;;;9.15;82.14;99372.53;1696646;84;21127;-67
2021/04/23 00:24:26;;;;;;;18.17;14.53;;;;;;;9.11;82.33;99376.87;1699055;84;22142;-67
2021/04/23 00:26:54;;;;;;;15.10;11.97;;;;;;;9.03;82.70;99379.33;1699345;84;21174;-67
2021/04/23 00:29:21;;;;;;;13.30;10.38;;;;;;;8.98;82.77;99387.73;1688899;83;21657;-66
2021/04/23 00:31:50;;;;;;;12.23;10.60;;;;;;;8.98;82.76;99390.45;1699202;84;21147;-66
2021/04/23 00:34:18;;;;;;;10.82;9.55;;;;;;;8.99;82.64;99388.55;1700749;84;21162;-66
2021/04/23 00:36:45;;;;;;;11.53;9.43;;;;;;;9.01;82.50;99378.22;1704199;82;21185;-66
2021/04/23 00:39:13;;;;;;;11.85;9.68;;;;;;;9.03;82.40;99381.50;1697643;83;21178;-66
2021/04/23 00:41:40;;;;;;;11.45;9.38;;;;;;;9.05;82.30;99388.00;1695906;84;21179;-66
2021/04/23 00:44:08;;;;;;;13.93;11.03;;;;;;;9.05;82.25;99386.11;1633345;87;21161;-66
2021/04/23 00:46:37;;;;;;;13.58;11.28;;;;;;;9.06;82.27;99390.46;1687252;84;21300;-67
2021/04/23 00:49:05;;;;;;;13.55;11.08;;;;;;;9.06;82.30;99386.92;1706115;84;21621;-67
2021/04/23 00:51:44;;;;;;;12.88;10.88;;;;;;;9.02;82.39;99387.19;1683053;84;21167;-66
2021/04/23 00:54:13;;;;;;;10.85;9.20;;;;;;;9.00;82.39;99386.09;1700809;84;21292;-67
2021/04/23 00:56:41;;;;;;;10.65;8.78;;;;;;;8.98;82.44;99382.30;1703977;84;21133;-65
2021/04/23 00:59:10;;;;;;;10.90;8.88;;;;;;;8.99;82.41;99392.08;1687908;84;21166;-67
2021/04/23 01:01:45;;;;;;;10.43;9.30;;;;;;;9.01;82.36;99391.80;1704137;84;21280;-67
2021/04/23 01:04:13;;;;;;;11.35;9.10;;;;;;;8.97;82.41;99393.41;1680718;84;21368;-67
2021/04/23 01:06:40;;;;;;;10.58;9.00;;;;;;;8.96;82.51;99394.52;1699979;84;21585;-68
2021/04/23 01:09:15;;;;;;;9.08;8.10;;;;;;;8.98;82.49;99399.13;1690247;84;21585;-67
2021/04/23 01:11:43;;;;;;;9.73;8.33;;;;;;;8.98;82.43;99393.70;1701980;84;21181;-67
2021/04/23 01:14:10;;;;;;;10.00;8.50;;;;;;;8.97;82.41;99397.48;1683619;84;21169;-68
2021/04/23 01:16:39;;;;;;;10.98;9.28;;;;;;;8.97;82.42;99396.13;1691424;84;21161;-67
2021/04/23 01:19:10;;;;;;;10.20;9.08;;;;;;;8.96;82.49;99400.73;1695128;83;21188;-67
2021/04/23 01:21:39;;;;;;;10.08;8.88;;;;;;;8.96;82.58;99399.95;1695054;83;21133;-67
2021/04/23 01:24:08;;;;;;;11.35;9.28;;;;;;;8.96;82.54;99390.45;1703623;83;21970;-67
2021/04/23 01:26:40;;;;;;;11.70;8.78;;;;;;;8.93;82.72;99390.97;1692528;83;21185;-68
2021/04/23 01:29:08;;;;;;;11.08;8.78;;;;;;;8.91;82.74;99396.68;1705487;83;21182;-68
2021/04/23 01:31:38;;;;;;;11.60;9.33;;;;;;;8.91;82.85;99394.50;1646329;86;21181;-68
2021/04/23 01:34:12;;;;;;;12.50;11.03;;;;;;;8.92;82.87;99401.57;1700096;83;21750;-67
2021/04/23 01:36:40;;;;;;;10.78;9.68;;;;;;;8.83;83.29;99399.91;1698902;83;21133;-67
2021/04/23 01:39:13;;;;;;;12.28;10.50;;;;;;;8.83;83.36;99400.45;1722362;83;21327;-66
2021/04/23 01:41:41;;;;;;;12.25;9.68;;;;;;;8.84;83.53;99400.20;1720457;83;21153;-67
2021/04/23 01:44:09;;;;;;;12.40;10.40;;;;;;;8.86;83.54;99401.27;1708315;83;21323;-69
2021/04/23 01:46:37;;;;;;;10.20;8.93;;;;;;;8.87;83.72;99410.52;1723281;83;21419;-68
2021/04/23 01:49:10;;;;;;;11.38;9.98;;;;;;;8.90;83.86;99417.30;1716318;82;21189;-68
2021/04/23 01:51:41;;;;;;;11.15;9.85;;;;;;;8.92;83.79;99410.53;1716821;83;21121;-68
2021/04/23 01:54:08;;;;;;;11.60;10.43;;;;;;;8.93;83.83;99418.93;1723627;83;21604;-68
2021/04/23 01:56:37;;;;;;;11.78;9.68;;;;;;;8.91;83.97;99418.39;1721624;83;21145;-68
2021/04/23 01:59:05;;;;;;;12.33;10.20;;;;;;;8.94;84.03;99419.75;1721414;82;21338;-68
2021/04/23 02:01:34;;;;;;;11.00;8.63;;;;;;;8.97;83.90;99445.00;1709293;83;21121;-68
2021/04/23 02:04:04;;;;;;;8.13;6.78;;;;;;;8.91;82.17;99448.80;1707417;83;21164;-66
2021/04/23 02:06:31;;;;;;;8.43;5.60;;;;;;;8.71;80.44;99440.60;1703471;83;21201;-68
2021/04/23 02:08:59;;;;;;;6.25;4.12;;;;;;;8.53;79.33;99456.00;1699504;83;21185;-67
2021/04/23 02:11:28;;;;;;;8.00;4.85;;;;;;;8.11;74.45;99462.27;1719243;83;21166;-71
2021/04/23 02:13:56;;;;;;;8.73;5.47;;;;;;;7.72;74.66;99476.61;1709106;83;21213;-69
2021/04/23 02:16:24;;;;;;;8.40;4.75;;;;;;;7.36;74.95;99478.77;1722016;82;21181;-70
2021/04/23 02:18:53;;;;;;;7.05;4.20;;;;;;;7.25;75.56;99502.22;1706425;83;21124;-68
2021/04/23 02:21:20;;;;;;;9.80;4.50;;;;;;;7.02;74.25;99483.55;1641041;86;21169;-68
2021/04/23 02:23:49;;;;;;;8.28;4.58;;;;;;;6.86;75.72;99498.82;1667280;86;21191;-68
2021/04/23 02:26:18;;;;;;;7.45;4.50;;;;;;;6.72;76.39;99513.80;1652548;86;21191;-68
2021/04/23 02:28:50;;;;;;;7.60;4.37;;;;;;;6.53;76.24;99506.23;1681829;84;21229;-68
2021/04/23 02:31:24;;;;;;;8.65;4.65;;;;;;;6.46;76.83;99501.84;1645310;86;21117;-67
2021/04/23 02:33:55;;;;;;;10.53;4.45;;;;;;;6.39;77.01;99500.38;1680177;85;21605;-67
2021/04/23 02:36:23;;;;;;;10.00;4.35;;;;;;;6.31;77.24;99496.75;1672532;86;21197;-67
2021/04/23 02:38:50;;;;;;;8.78;5.47;;;;;;;6.18;77.58;99509.28;1669682;86;21159;-69
2021/04/23 02:41:19;;;;;;;8.73;4.55;;;;;;;6.01;77.96;99516.06;1667562;86;21201;-67
2021/04/23 02:43:52;;;;;;;9.30;4.30;;;;;;;5.91;78.19;99522.14;1656197;86;21174;-68
2021/04/23 02:46:21;;;;;;;9.40;4.35;;;;;;;5.88;78.57;99521.81;1708017;84;21605;-67
2021/04/23 02:48:48;;;;;;;8.13;4.15;;;;;;;5.90;78.82;99525.90;1708092;84;21240;-69
2021/04/23 02:51:22;;;;;;;8.68;4.62;;;;;;;5.86;79.12;99527.45;1686788;84;21609;-68
2021/04/23 02:53:51;;;;;;;9.45;4.60;;;;;;;5.85;78.99;99521.72;1685241;84;21156;-67
2021/04/23 02:56:20;;;;;;;8.68;4.40;;;;;;;5.80;78.75;99532.47;1694890;84;21164;-66
2021/04/23 02:58:48;;;;;;;6.65;4.30;;;;;;;5.75;78.87;99538.30;1687923;84;21180;-67
2021/04/23 03:01:19;;;;;;;8.05;4.05;;;;;;;5.67;79.39;99545.48;1686930;84;21128;-68
2021/04/23 03:03:48;;;;;;;8.93;4.42;;;;;;;5.66;79.26;99547.88;1661399;86;21178;-65
2021/04/23 03:06:16;;;;;;;9.65;4.83;;;;;;;5.58;79.30;99555.02;1640661;86;21181;-66
2021/04/23 03:08:44;;;;;;;8.50;4.58;;;;;;;5.52;79.50;99563.58;1651885;85;21188;-69
2021/04/23 03:11:16;;;;;;;8.00;4.12;;;;;;;5.45;79.91;99557.52;1697522;84;21597;-67
2021/04/23 03:13:48;;;;;;;6.67;3.80;;;;;;;5.43;80.02;99557.74;1706615;84;21553;-68
2021/04/23 03:16:16;;;;;;;7.37;3.85;;;;;;;5.35;80.47;99566.22;1700447;82;21695;-67
2021/04/23 03:18:45;;;;;;;7.83;3.50;;;;;;;5.27;80.22;99562.58;1694792;84;21203;-67
2021/04/23 03:21:15;;;;;;;7.62;4.10;;;;;;;5.22;80.57;99569.22;1700451;84;21328;-69
2021/04/23 03:23:42;;;;;;;7.72;3.58;;;;;;;5.18;80.82;99569.41;1693063;84;21207;-67
2021/04/23 03:26:11;;;;;;;9.03;4.03;;;;;;;5.18;81.09;99569.41;1654812;87;21197;-66
2021/04/23 03:28:40;;;;;;;6.95;3.75;;;;;;;5.14;81.08;99576.34;1698695;83;21206;-66
2021/04/23 03:31:09;;;;;;;8.18;4.00;;;;;;;5.11;81.25;99566.03;1667571;85;21694;-67
2021/04/23 03:33:37;;;;;;;10.70;4.00;;;;;;;5.08;81.18;99576.48;1652336;87;21231;-67
2021/04/23 03:36:06;;;;;;;7.72;3.40;;;;;;;5.08;80.83;99574.61;1710616;83;21172;-67
2021/04/23 03:38:35;;;;;;;7.30;3.42;;;;;;;5.03;81.00;99578.02;1695090;83;21965;-67
2021/04/23 03:41:07;;;;;;;8.98;3.87;;;;;;;5.03;81.12;99584.77;1690575;83;21153;-69
2021/04/23 03:43:34;;;;;;;6.65;3.55;;;;;;;5.06;81.48;99585.37;1694061;83;21161;-67
2021/04/23 03:46:02;;;;;;;6.75;3.17;;;;;;;5.09;81.55;99594.33;1710092;83;21316;-67
2021/04/23 03:48:30;;;;;;;7.42;3.37;;;;;;;5.09;81.54;99591.63;1716764;83;21170;-67
2021/04/23 03:50:58;;;;;;;7.45;3.62;;;;;;;5.12;81.65;99589.27;1701748;83;21176;-68
2021/04/23 03:53:25;;;;;;;8.45;3.87;;;;;;;5.17;81.69;99585.86;1694487;83;21352;-67
2021/04/23 03:55:54;;;;;;;8.50;3.50;;;;;;;5.14;81.58;99582.27;1705698;83;21291;-65
2021/04/23 03:58:22;;;;;;;6.08;3.20;;;;;;;5.15;81.43;99588.78;1688815;83;21751;-67
2021/04/23 04:00:59;;;;;;;9.15;3.67;;;;;;;5.20;80.92;99590.25;1688995;83;21320;-67
2021/04/23 04:03:27;;;;;;;8.23;4.20;;;;;;;5.23;80.90;99594.34;1716014;83;21366;-67
2021/04/23 04:05:55;;;;;;;6.55;3.37;;;;;;;5.17;81.04;99594.78;1704813;83;21604;-65
2021/04/23 04:08:22;;;;;;;5.35;2.87;;;;;;;5.12;81.17;99596.02;1712541;83;21287;-67
2021/04/23 04:10:51;;;;;;;7.20;3.40;;;;;;;5.17;81.13;99592.61;1710920;83;21154;-68
2021/04/23 04:13:19;;;;;;;8.15;3.50;;;;;;;5.17;80.95;99593.43;1695181;83;21177;-67
2021/04/23 04:15:46;;;;;;;7.20;3.95;;;;;;;5.18;80.97;99587.48;1704400;83;21137;-68
2021/04/23 04:18:14;;;;;;;6.40;3.40;;;;;;;5.19;81.15;99587.78;1688481;83;21169;-67
2021/04/23 04:20:44;;;;;;;7.28;3.35;;;;;;;5.16;81.29;99580.98;1696414;84;21585;-68
2021/04/23 04:23:15;;;;;;;7.42;4.08;;;;;;;5.23;81.19;99595.16;1709398;84;21185;-67
2021/04/23 04:25:46;;;;;;;8.15;3.52;;;;;;;5.29;81.10;99594.19;1644832;87;21173;-67
2021/04/23 04:28:13;;;;;;;5.67;3.20;;;;;;;5.36;81.07;99596.73;1703868;84;21501;-68
2021/04/23 04:30:41;;;;;;;7.80;3.60;;;;;;;5.36;81.19;99599.44;1706329;84;21168;-67
2021/04/23 04:33:09;;;;;;;8.15;3.75;;;;;;;5.34;81.06;99601.57;1705432;84;21169;-67
2021/04/23 04:35:37;;;;;;;6.35;3.62;;;;;;;5.39;81.02;99601.12;1635818;87;21173;-67
2021/04/23 04:38:09;;;;;;;6.75;3.62;;;;;;;5.45;81.14;99604.23;1694983;84;21137;-67
2021/04/23 04:40:39;;;;;;;7.28;3.70;;;;;;;5.51;81.22;99608.66;1611721;89;21226;-70
2021/04/23 04:43:09;;;;;;;6.33;2.85;;;;;;;5.46;81.02;99601.80;1680832;85;21165;-68
2021/04/23 04:45:37;;;;;;;6.62;4.10;;;;;;;5.48;80.79;99605.63;1695589;84;21238;-69
2021/04/23 04:48:06;;;;;;;6.85;3.60;;;;;;;5.53;80.74;99609.75;1636579;88;21323;-68
2021/04/23 04:50:49;;;;;;;8.93;3.98;;;;;;;5.62;80.51;99607.48;1681661;84;21640;-67
2021/04/23 04:53:17;;;;;;;7.45;3.50;;;;;;;5.56;80.50;99602.54;1692803;83;21291;-64
2021/04/23 04:55:47;;;;;;;7.75;3.08;;;;;;;5.61;80.39;99612.59;1699245;84;21304;-65
2021/04/23 04:58:16;;;;;;;8.23;3.77;;;;;;;5.65;80.17;99605.65;1709083;84;21185;-71
2021/04/23 05:00:44;;;;;;;6.33;3.52;;;;;;;5.70;79.98;99609.80;1702813;84;21863;-63
2021/04/23 05:03:12;;;;;;;7.12;3.67;;;;;;;5.71;79.97;99614.12;1684605;84;21122;-64
2021/04/23 05:05:42;;;;;;;8.48;4.47;;;;;;;5.73;79.98;99624.16;1694538;84;21695;-61
2021/04/23 05:08:10;;;;;;;9.08;3.67;;;;;;;5.75;80.22;99618.80;1680623;84;21304;-62
2021/04/23 05:10:37;;;;;;;7.58;3.65;;;;;;;5.77;79.36;99627.50;1681266;84;21193;-62
2021/04/23 05:13:05;;;;;;;6.75;3.60;;;;;;;5.82;79.46;99630.27;1666479;86;21193;-63
2021/04/23 05:15:32;;;;;;;5.37;3.20;;;;;;;5.90;79.66;99631.80;1686069;84;21191;-63
2021/04/23 05:17:59;;;;;;;7.08;3.10;;;;;;;5.92;79.93;99626.95;1689478;83;21169;-63
2021/04/23 05:20:27;;;;;;;7.15;3.05;;;;;;;6.00;79.77;99627.91;1638109;86;21751;-63
2021/04/23 05:22:55;;;;;;;7.10;3.45;;;;;;;6.09;79.56;99633.22;1705200;83;21145;-65
2021/04/23 05:25:24;;;;;;;5.25;2.72;;;;;;;6.18;78.92;99623.62;1694382;83;21193;-65
2021/04/23 05:27:52;;;;;;;7.03;3.17;;;;;;;6.27;78.90;99626.75;1655311;86;21177;-65
2021/04/23 05:30:24;;;;;;;8.93;3.55;;;;;;;6.29;78.84;99633.53;1715315;83;21178;-66
2021/04/23 05:32:59;;;;;;;7.35;3.22;;;;;;;6.40;78.81;99625.05;1763360;79;22894;-65
2021/04/23 05:35:28;;;;;;;8.75;3.40;;;;;;;6.45;77.88;99630.52;1691572;82;21175;-65
2021/04/23 05:37:55;;;;;;;6.62;3.83;;;;;;;6.48;77.48;99625.99;1693773;85;21133;-65
2021/04/23 05:40:30;;;;;;;5.12;2.90;;;;;;;6.54;77.93;99626.87;1639593;87;21162;-64
2021/04/23 05:42:58;;;;;;;7.67;3.55;;;;;;;6.61;77.52;99632.40;1707993;83;21177;-64
2021/04/23 05:45:27;;;;;;;7.47;3.50;;;;;;;6.73;76.96;99626.89;1708959;82;21165;-64
2021/04/23 05:47:55;;;;;;;7.42;3.30;;;;;;;6.84;77.07;99631.34;1719794;83;21176;-64
2021/04/23 05:50:23;;;;;;;9.10;3.80;;;;;;;6.88;76.68;99636.02;1715506;83;21209;-64
2021/04/23 05:52:50;;;;;;;9.18;3.20;;;;;;;6.94;77.38;99635.58;1708458;83;21339;-65
2021/04/23 05:55:21;;;;;;;6.92;3.65;;;;;;;7.10;76.39;99636.57;1719712;82;21218;-63
2021/04/23 05:57:49;;;;;;;6.47;3.83;;;;;;;7.18;76.08;99636.97;1719449;83;21675;-65
2021/04/23 06:00:19;;;;;;;10.30;3.60;;;;;;;7.33;76.30;99631.71;1720068;82;21184;-65
2021/04/23 06:02:48;;;;;;;8.60;4.37;;;;;;;7.49;75.86;99639.48;1719854;83;21166;-64
2021/04/23 06:05:16;;;;;;;7.03;3.92;;;;;;;7.51;74.93;99638.16;1701323;83;21191;-64
2021/04/23 06:07:43;;;;;;;5.20;2.95;;;;;;;7.55;74.18;99638.99;1693090;83;21342;-65
2021/04/23 06:10:12;;;;;;;7.00;3.50;;;;;;;7.63;73.68;99639.91;1708966;83;21169;-64
2021/04/23 06:12:39;;;;;;;12.30;4.55;;;;;;;7.58;73.60;99642.58;1704657;83;21185;-64
2021/04/23 06:15:08;;;;;;;12.13;6.55;;;;;;;7.61;73.71;99638.00;1650501;86;21639;-64
2021/04/23 06:17:36;;;;;;;6.65;4.17;;;;;;;7.72;73.71;99639.19;1689971;85;21167;-64
2021/04/23 06:20:11;;;;;;;8.25;4.58;;;;;;;7.78;72.50;99639.54;1666522;85;21234;-64
2021/04/23 06:22:38;;;;;;;7.12;3.90;;;;;;;7.67;72.91;99622.89;1671840;85;21334;-64
2021/04/23 06:25:09;;;;;;;6.65;3.42;;;;;;;7.99;71.85;99647.33;1672394;84;21157;-64
2021/04/23 06:27:37;;;;;;;7.62;3.60;;;;;;;8.04;70.02;99640.61;1666717;85;21179;-65
2021/04/23 06:30:07;;;;;;;8.80;5.40;;;;;;;7.95;70.36;99647.02;1679263;85;21685;-64
2021/04/23 06:32:35;;;;;;;7.08;3.70;;;;;;;7.95;71.55;99646.20;1669265;85;21338;-65
2021/04/23 06:35:04;;;;;;;7.10;3.62;;;;;;;8.08;70.83;99643.06;1671710;85;21133;-64
2021/04/23 06:37:31;;;;;;;8.65;4.65;;;;;;;8.20;70.17;99646.97;1663068;85;21208;-65
2021/04/23 06:39:58;;;;;;;8.40;4.30;;;;;;;8.15;69.79;99651.00;1654326;84;21319;-63
2021/04/23 06:42:26;;;;;;;10.72;5.55;;;;;;;8.06;69.28;99649.82;1668908;86;21316;-61
2021/04/23 06:44:53;;;;;;;6.87;3.52;;;;;;;8.14;69.73;99650.72;1649025;85;21181;-61
2021/04/23 06:47:21;;;;;;;8.20;4.17;;;;;;;8.35;69.04;99650.66;1684158;84;21724;-63
2021/04/23 06:49:49;;;;;;;9.30;5.25;;;;;;;8.55;68.33;99644.56;1693538;84;21145;-63
2021/04/23 06:52:16;;;;;;;9.83;3.83;;;;;;;8.66;68.99;99649.52;1708095;84;21189;-63
2021/04/23 06:54:44;;;;;;;5.78;3.35;;;;;;;8.83;68.26;99650.98;1705748;82;21211;-64
2021/04/23 06:57:11;;;;;;;5.95;2.83;;;;;;;8.94;68.29;99654.05;1630702;87;21655;-64
2021/04/23 06:59:38;;;;;;;6.45;3.02;;;;;;;9.10;67.16;99656.31;1650327;86;21208;-63
2021/04/23 07:02:06;;;;;;;6.70;3.85;;;;;;;9.08;65.98;99658.99;1665706;86;21187;-64
2021/04/23 07:04:33;;;;;;;5.83;3.40;;;;;;;9.05;66.99;99657.63;1662314;85;21635;-64
2021/04/23 07:07:01;;;;;;;7.35;3.17;;;;;;;9.06;65.78;99663.34;1623859;86;21199;-64
2021/04/23 07:09:28;;;;;;;4.95;2.80;;;;;;;8.89;65.67;99661.36;1661389;86;21932;-65
2021/04/23 07:11:57;;;;;;;6.67;3.20;;;;;;;8.78;64.11;99663.72;1677928;84;21632;-65
2021/04/23 07:14:26;;;;;;;7.58;4.20;;;;;;;8.71;65.72;99657.17;1635826;88;21192;-64
2021/04/23 07:16:55;;;;;;;7.72;3.72;;;;;;;8.68;66.62;99659.59;1645294;86;21170;-64
2021/04/23 07:19:24;;;;;;;7.83;3.10;;;;;;;8.76;67.26;99660.44;1695065;82;21165;-65
2021/04/23 07:21:51;;;;;;;6.12;2.83;;;;;;;8.87;67.28;99664.85;1705912;84;21185;-66
2021/04/23 07:24:19;;;;;;;5.33;2.80;;;;;;;9.03;65.21;99658.45;1708906;82;21165;-65
2021/04/23 07:26:47;;;;;;;4.75;2.42;;;;;;;9.12;65.08;99661.46;1693162;84;21159;-68
2021/04/23 07:29:15;;;;;;;6.15;2.75;;;;;;;9.18;65.01;99653.07;1622205;87;21563;-61
2021/04/23 07:31:42;;;;;;;9.25;3.22;;;;;;;9.28;64.73;99654.47;1682158;84;21165;-62
2021/04/23 07:34:10;;;;;;;4.30;2.52;;;;;;;9.35;63.92;99648.82;1675956;83;21557;-65
2021/04/23 07:36:37;;;;;;;7.42;3.08;;;;;;;9.42;62.99;99650.75;1701371;83;21291;-64
2021/04/23 07:39:09;;;;;;;5.78;2.52;;;;;;;9.41;62.90;99647.21;1708599;82;21161;-64
2021/04/23 07:41:35;;;;;;;6.58;2.85;;;;;;;9.43;62.38;99649.11;1696391;83;21779;-66
2021/04/23 07:44:03;;;;;;;7.17;2.67;;;;;;;9.50;62.58;99646.14;1717546;82;21314;-66
2021/04/23 07:46:32;;;;;;;7.65;2.80;;;;;;;9.55;61.16;99654.86;1696218;83;21200;-67
2021/04/23 07:49:00;;;;;;;6.37;2.62;;;;;;;9.43;60.03;99651.83;1711803;83;21195;-66
2021/04/23 07:51:27;;;;;;;5.03;2.92;;;;;;;9.27;60.90;99651.50;1704914;83;21412;-66
2021/04/23 07:53:55;;;;;;;5.83;2.92;;;;;;;9.22;62.56;99650.11;1699270;82;21214;-66
2021/04/23 07:56:22;;;;;;;6.03;3.02;;;;;;;9.16;61.50;99663.39;1708173;83;21153;-65
2021/04/23 07:58:49;;;;;;;6.42;3.35;;;;;;;9.12;61.95;99655.50;1708681;82;21204;-67
2021/04/23 08:01:17;;;;;;;5.47;2.87;;;;;;;9.16;62.54;99647.64;1720983;82;21145;-67
2021/04/23 08:03:46;;;;;;;5.87;2.85;;;;;;;9.32;62.61;99641.17;1705997;83;21157;-68
2021/04/23 08:06:14;;;;;;;5.58;2.65;;;;;;;9.48;61.46;99653.22;1706521;83;21320;-67
2021/04/23 08:08:44;;;;;;;7.03;2.80;;;;;;;9.54;60.79;99651.86;1676263;83;21234;-67
2021/04/23 08:11:12;;;;;;;4.83;2.67;;;;;;;9.50;60.83;99651.03;1709798;83;21611;-66
2021/04/23 08:13:41;;;;;;;7.10;3.42;;;;;;;9.66;62.59;99653.27;1716829;83;21169;-64
2021/04/23 08:16:10;;;;;;;5.95;2.80;;;;;;;9.94;61.75;99655.51;1702138;83;21187;-63
2021/04/23 08:18:39;;;;;;;5.83;3.10;;;;;;;10.27;61.55;99651.47;1706417;83;21179;-65
2021/04/23 08:21:09;;;;;;;7.25;2.80;;;;;;;10.62;58.83;99650.67;1698284;83;21149;-65
2021/04/23 08:23:38;;;;;;;5.83;2.77;;;;;;;10.87;57.61;99647.09;1715030;83;21162;-66
2021/04/23 08:26:07;;;;;;;8.53;4.87;;;;;;;11.04;56.08;99655.76;1705519;83;21157;-65
2021/04/23 08:28:35;;;;;;;6.85;3.00;;;;;;;11.15;56.62;99656.00;1706248;83;21811;-65
2021/04/23 08:31:02;;;;;;;7.33;2.92;;;;;;;11.15;56.59;99653.28;1722292;83;21153;-66
2021/04/23 08:33:30;;;;;;;9.43;4.58;;;;;;;11.13;56.07;99652.72;1710885;82;21586;-66
2021/04/23 08:35:58;;;;;;;6.00;2.98;;;;;;;11.07;56.85;99657.92;1707035;84;21570;-65
2021/04/23 08:38:26;;;;;;;5.33;2.50;;;;;;;10.93;55.22;99656.33;1701385;84;21165;-65
2021/04/23 08:40:56;;;;;;;7.50;3.37;;;;;;;10.79;55.41;99660.72;1692684;84;21133;-65
2021/04/23 08:43:25;;;;;;;8.45;3.08;;;;;;;10.70;57.84;99654.17;1686536;84;21157;-65
2021/04/23 08:45:52;;;;;;;7.67;3.22;;;;;;;10.70;57.64;99656.11;1703080;84;21642;-65
2021/04/23 08:48:21;;;;;;;7.12;3.12;;;;;;;10.74;56.52;99659.34;1680406;84;21193;-65
2021/04/23 08:50:49;;;;;;;6.70;3.10;;;;;;;10.87;55.37;99653.36;1681347;84;21185;-64
2021/04/23 08:53:17;;;;;;;6.90;2.70;;;;;;;11.08;54.56;99654.66;1652775;85;21169;-65
2021/04/23 08:55:45;;;;;;;5.40;2.52;;;;;;;11.23;52.49;99655.98;1707847;84;21537;-65
2021/04/23 08:58:14;;;;;;;6.62;2.62;;;;;;;11.17;52.18;99655.16;1709742;84;21230;-66
2021/04/23 09:00:41;;;;;;;6.08;2.80;;;;;;;11.06;52.71;99648.11;1700868;84;21739;-65
2021/04/23 09:03:11;;;;;;;6.15;2.98;;;;;;;10.96;52.78;99642.70;1682181;84;21201;-65
2021/04/23 09:05:40;;;;;;;8.13;3.55;;;;;;;10.89;54.43;99644.35;1696966;84;21312;-66
2021/04/23 09:08:11;;;;;;;7.62;3.10;;;;;;;11.08;52.97;99646.48;1695804;82;21145;-66
2021/04/23 09:10:39;;;;;;;8.03;3.35;;;;;;;11.23;53.24;99647.23;1692725;82;21341;-67
2021/04/23 09:13:15;;;;;;;7.67;3.25;;;;;;;11.46;52.34;99645.25;1691637;84;21169;-67
2021/04/23 09:15:45;;;;;;;7.47;3.27;;;;;;;11.58;51.55;99653.11;1688395;84;21143;-67
2021/04/23 09:18:16;;;;;;;6.00;2.72;;;;;;;11.68;52.23;99646.78;1683285;84;21629;-66
2021/04/23 09:20:46;;;;;;;6.08;2.35;;;;;;;11.80;49.13;99648.09;1690089;84;21185;-68
2021/04/23 09:23:21;;;;;;;8.40;3.20;;;;;;;11.88;48.94;99650.77;1693942;84;21165;-67
2021/04/23 09:25:53;;;;;;;8.48;2.77;;;;;;;11.98;50.10;99658.89;1705926;84;21572;-60
2021/04/23 09:28:41;;;;;;;5.20;2.65;;;;;;;12.13;48.26;99649.79;1701157;84;21196;-64
2021/04/23 09:31:27;;;;;;;5.22;2.33;;;;;;;12.30;48.98;99653.75;1696225;84;21185;-66
2021/04/23 09:33:57;;;;;;;6.33;2.58;;;;;;;12.59;48.81;99650.23;1704461;83;21234;-65
2021/04/23 09:39:24;;;;;;;9.63;3.27;;;;;;;12.96;48.28;99638.14;1755047;79;23049;-66
2021/04/23 09:42:08;;;;;;;6.85;3.15;;;;;;;13.04;45.89;99636.70;1710582;83;21336;-67
2021/04/23 09:44:47;;;;;;;5.95;2.65;;;;;;;13.08;48.51;99640.45;1710995;83;21160;-66
2021/04/23 09:47:22;;;;;;;9.60;4.20;;;;;;;13.19;45.82;99635.16;1643320;87;21733;-66
2021/04/23 09:49:57;;;;;;;12.05;4.30;;;;;;;13.20;47.27;99633.52;1648617;86;21588;-65
2021/04/23 09:52:26;;;;;;;7.40;3.20;;;;;;;13.15;46.26;99636.30;1688745;84;21176;-65
2021/04/23 09:54:59;;;;;;;5.33;2.67;;;;;;;13.16;45.66;99623.45;1706590;83;21516;-67
2021/04/23 09:57:32;;;;;;;5.50;2.60;;;;;;;13.30;46.25;99614.26;1719631;83;21275;-67
2021/04/23 10:00:00;;;;;;;9.28;3.47;;;;;;;13.42;44.23;99619.31;1703172;83;21321;-65
2021/04/23 10:02:29;;;;;;;7.80;3.90;;;;;;;13.38;44.02;99618.27;1710095;83;21189;-66
2021/04/23 10:05:44;;;;;;;6.95;3.10;;;;;;;13.23;45.42;99623.91;1712078;83;21194;-66
2021/04/23 10:08:26;;;;;;;7.78;3.12;;;;;;;13.08;47.59;99627.61;1700494;83;21183;-66
2021/04/23 10:10:58;;;;;;;6.15;3.55;;;;;;;13.02;47.09;99633.42;1718104;83;21707;-66
2021/04/23 10:13:31;;;;;;;5.87;2.75;;;;;;;12.85;47.09;99638.80;1691348;83;21323;-68
2021/04/23 10:15:59;;;;;;;5.90;2.85;;;;;;;12.72;45.82;99633.17;1713970;83;21125;-65
2021/04/23 10:18:27;;;;;;;6.17;3.02;;;;;;;12.57;46.85;99623.78;1660888;85;21322;-67
2021/04/23 10:20:56;;;;;;;9.23;2.80;;;;;;;12.23;46.18;99600.04;1667640;85;21176;-65
2021/04/23 10:23:24;;;;;;;6.55;3.00;;;;;;;12.25;45.16;99625.16;1667035;85;21183;-64
2021/04/23 10:25:53;;;;;;;5.72;2.58;;;;;;;12.09;45.30;99624.98;1663981;85;21165;-65
2021/04/23 10:28:23;;;;;;;6.37;2.67;;;;;;;12.03;44.93;99626.13;1663276;85;21683;-65
2021/04/23 10:30:53;;;;;;;6.80;2.70;;;;;;;11.92;44.92;99616.38;1672163;85;21184;-67
2021/04/23 10:33:23;;;;;;;8.08;2.87;;;;;;;11.90;45.50;99617.23;1669171;85;21322;-67
2021/04/23 10:35:55;;;;;;;7.47;3.30;;;;;;;11.92;45.92;99621.84;1675713;85;21556;-65
2021/04/23 10:38:26;;;;;;;7.97;2.77;;;;;;;11.92;46.42;99615.84;1657132;86;21177;-66
2021/04/23 10:41:00;;;;;;;7.75;3.65;;;;;;;11.98;47.44;99622.06;1655969;85;21192;-65
2021/04/23 10:43:32;;;;;;;6.40;2.98;;;;;;;12.01;48.81;99613.88;1652371;86;21385;-67
2021/04/23 10:48:48;;;;;;;8.75;3.70;;;;;;;12.16;48.26;99609.66;1776897;79;38986;-67
2021/04/23 10:51:28;;;;;;;6.55;2.95;;;;;;;12.58;48.52;99613.92;1785587;80;21273;-67
2021/04/23 10:54:17;;;;;;;7.00;2.60;;;;;;;12.93;47.38;99618.23;1753573;81;21182;-68
2021/04/23 10:56:52;;;;;;;;;;;;;;;12.89;44.79;99606.25;1734618;83;21342;-67
2021/04/23 10:59:29;;;;;;;6.53;2.70;;;;;;;12.67;45.56;99610.03;1707938;83;20259;-66
2021/04/23 11:02:15;;;;;;;6.33;3.25;;;;;;;12.64;46.36;99610.61;1694940;83;21748;-68
2021/04/23 11:04:57;;;;;;;6.58;2.83;;;;;;;12.81;45.66;99615.07;1719960;83;21331;-66
2021/04/23 11:07:25;;;;;;;8.30;3.27;;;;;;;12.94;46.19;99615.73;1727848;83;21225;-69
2021/04/23 11:10:01;;;;;;;6.87;3.02;;;;;;;12.98;44.76;99609.41;1719531;83;21238;-66
2021/04/23 11:12:29;;;;;;;7.10;3.12;;;;;;;13.03;45.12;99614.02;1712596;83;21170;-68
2021/04/23 11:15:25;;;;;;;7.62;3.58;;;;;;;13.03;43.63;99608.55;1710104;83;21206;-67
2021/04/23 11:17:53;;;;;;;7.60;3.27;;;;;;;12.95;43.73;99614.64;1794694;79;21283;-65
2021/04/23 11:20:30;;;;;;;6.70;3.30;;;;;;;12.73;41.71;99614.33;1762874;80;21623;-68
2021/04/23 11:22:59;;;;;;;5.78;2.98;;;;;;;12.49;40.78;99608.83;1737811;82;21180;-67
2021/04/23 11:25:28;;;;;;;6.90;4.10;;;;;;;12.38;40.06;99613.56;1733810;81;21164;-66
2021/04/23 11:28:07;;;;;;;7.08;3.95;;;;;;;12.32;40.41;99606.53;1750124;80;21161;-68
2021/04/23 11:31:07;;;;;;;8.98;4.58;;;;;;;12.29;41.72;99606.29;1740790;81;21157;-69
2021/04/23 11:35:32;;;;;;;12.57;3.50;;;;;;;12.48;42.32;99602.55;1811097;78;22981;-68
2021/04/23 11:38:02;;;;;;;6.92;3.67;;;;;;;12.47;41.73;99603.64;1760681;80;21888;-67
2021/04/23 11:40:30;;;;;;;7.00;2.75;;;;;;;12.49;42.06;99599.27;1768082;80;21126;-67
2021/04/23 11:43:00;;;;;;;5.05;2.50;;;;;;;12.35;40.07;99597.77;1781160;80;21188;-66
2021/04/23 11:45:30;;;;;;;10.40;3.92;;;;;;;12.30;41.65;99592.88;1761011;80;21170;-67
2021/04/23 11:48:08;;;;;;;7.67;4.60;;;;;;;12.31;42.17;99589.87;1785130;80;21144;-66
2021/04/23 11:50:42;;;;;;;8.75;3.67;;;;;;;12.36;41.76;99591.19;1767538;80;21125;-69
2021/04/23 11:53:12;;;;;;;8.90;3.90;;;;;;;12.36;41.86;99591.77;1788865;80;21149;-68
2021/04/23 11:55:43;;;;;;;8.03;3.20;;;;;;;12.36;40.99;99591.77;1779379;80;21275;-66
2021/04/23 11:58:19;;;;;;;8.08;6.42;;;;;;;12.31;40.47;99589.87;1765496;80;21136;-67